createdAt,value
2019-04-10T00:00:23.086Z,9.81
2019-04-10T00:01:22.231Z,9.57
2019-04-10T00:02:22.213Z,9.59
2019-04-10T00:03:31.975Z,9.51
2019-04-10T00:04:23.189Z,9.54
2019-04-10T00:05:22.184Z,9.47
2019-04-10T00:06:22.169Z,9.52
2019-04-10T00:07:22.240Z,9.54
2019-04-10T00:08:22.146Z,9.54
2019-04-10T00:09:22.976Z,9.52
2019-04-10T00:10:22.121Z,9.47
2019-04-10T00:11:22.794Z,9.44
2019-04-10T00:12:22.100Z,9.29
2019-04-10T00:13:22.623Z,9.19
2019-04-10T00:14:22.081Z,9.15
2019-04-10T00:15:22.183Z,8.99
2019-04-10T00:16:22.410Z,8.96
2019-04-10T00:17:22.046Z,8.98
2019-04-10T00:18:22.177Z,8.83
2019-04-10T00:19:22.441Z,8.72
2019-04-10T00:20:22.540Z,8.78
2019-04-10T00:21:22.903Z,8.78
2019-04-10T00:22:22.239Z,8.86
2019-04-10T00:23:22.714Z,8.90
2019-04-10T00:24:22.020Z,9.19
2019-04-10T00:25:21.955Z,9.16
2019-04-10T00:26:21.948Z,9.18
2019-04-10T00:27:22.796Z,9.36
2019-04-10T00:28:21.922Z,9.47
2019-04-10T00:29:22.415Z,9.45
2019-04-10T00:30:21.902Z,9.51
2019-04-10T00:31:22.926Z,9.42
2019-04-10T00:32:21.882Z,9.47
2019-04-10T00:33:22.882Z,9.37
2019-04-10T00:34:21.856Z,9.41
2019-04-10T00:35:21.848Z,9.48
2019-04-10T00:36:21.834Z,9.42
2019-04-10T00:37:27.210Z,9.41
2019-04-10T00:38:23.955Z,9.33
2019-04-10T00:39:22.317Z,9.15
2019-04-10T00:40:21.796Z,9.18
2019-04-10T00:41:21.896Z,9.16
2019-04-10T00:42:21.765Z,9.24
2019-04-10T00:43:22.568Z,9.22
2019-04-10T00:44:21.743Z,9.30
2019-04-10T00:45:21.741Z,9.27
2019-04-10T00:46:22.144Z,9.36
2019-04-10T00:47:21.709Z,9.37
2019-04-10T00:48:21.756Z,9.47
2019-04-10T00:49:21.858Z,9.48
2019-04-10T00:50:22.327Z,9.54
2019-04-10T00:51:21.665Z,9.41
2019-04-10T00:52:21.860Z,9.26
2019-04-10T00:53:21.641Z,9.16
2019-04-10T00:54:21.772Z,8.92
2019-04-10T00:55:21.847Z,8.83
2019-04-10T00:56:21.610Z,8.71
2019-04-10T00:57:21.598Z,8.74
2019-04-10T00:58:22.504Z,8.68
2019-04-10T00:59:21.577Z,8.85
2019-04-10T01:00:22.041Z,8.86
2019-04-10T01:01:21.557Z,9.03
2019-04-10T01:02:22.490Z,8.89
2019-04-10T01:03:21.779Z,9.08
2019-04-10T01:04:22.352Z,9.12
2019-04-10T01:05:21.512Z,9.18
2019-04-10T01:06:22.040Z,9.16
2019-04-10T01:07:32.897Z,9.04
2019-04-10T01:08:22.476Z,9.08
2019-04-10T01:09:21.558Z,9.29
2019-04-10T01:10:22.041Z,9.27
2019-04-10T01:11:21.444Z,9.33
2019-04-10T01:12:21.596Z,9.32
2019-04-10T01:13:21.422Z,9.33
2019-04-10T01:14:21.459Z,9.34
2019-04-10T01:15:22.550Z,9.23
2019-04-10T01:16:21.387Z,9.12
2019-04-10T01:17:22.259Z,9.09
2019-04-10T01:18:21.451Z,8.95
2019-04-10T01:19:21.351Z,8.98
2019-04-10T01:20:21.715Z,8.98
2019-04-10T01:21:22.074Z,8.96
2019-04-10T01:22:21.325Z,8.86
2019-04-10T01:23:21.309Z,8.85
2019-04-10T01:24:21.682Z,8.90
2019-04-10T01:25:22.070Z,8.99
2019-04-10T01:26:21.281Z,8.96
2019-04-10T01:27:21.265Z,8.92
2019-04-10T01:28:21.252Z,8.95
2019-04-10T01:29:21.733Z,8.90
2019-04-10T01:30:22.178Z,8.78
2019-04-10T01:31:21.439Z,8.56
2019-04-10T01:32:21.212Z,8.46
2019-04-10T01:33:21.199Z,8.42
2019-04-10T01:34:21.229Z,8.32
2019-04-10T01:35:22.359Z,8.19
2019-04-10T01:36:21.167Z,8.17
2019-04-10T01:37:21.163Z,8.20
2019-04-10T01:38:21.819Z,8.09
2019-04-10T01:39:22.177Z,7.94
2019-04-10T01:40:21.737Z,7.83
2019-04-10T01:41:21.112Z,7.84
2019-04-10T01:42:21.096Z,7.83
2019-04-10T01:43:21.090Z,7.74
2019-04-10T01:44:21.080Z,7.76
2019-04-10T01:45:21.726Z,7.68
2019-04-10T01:46:21.981Z,7.71
2019-04-10T01:47:21.362Z,7.71
2019-04-10T01:48:21.044Z,7.86
2019-04-10T01:49:21.760Z,7.95
2019-04-10T01:50:22.137Z,7.87
2019-04-10T01:51:21.387Z,7.91
2019-04-10T01:52:20.990Z,7.92
2019-04-10T01:53:21.753Z,7.78
2019-04-10T01:54:20.981Z,7.80
2019-04-10T01:55:25.732Z,7.74
2019-04-10T01:56:29.449Z,7.77
2019-04-10T01:57:22.025Z,7.92
2019-04-10T01:58:21.132Z,7.96
2019-04-10T01:59:21.512Z,7.86
2019-04-10T02:00:21.580Z,7.92
2019-04-10T02:01:20.889Z,7.92
2019-04-10T02:02:21.166Z,7.86
2019-04-10T02:03:20.868Z,7.83
2019-04-10T02:04:20.857Z,7.86
2019-04-10T02:05:20.849Z,7.86
2019-04-10T02:06:21.073Z,7.86
2019-04-10T02:07:20.831Z,7.84
2019-04-10T02:08:21.505Z,7.77
2019-04-10T02:09:21.427Z,7.68
2019-04-10T02:10:20.793Z,7.69
2019-04-10T02:11:21.765Z,7.77
2019-04-10T02:12:20.787Z,7.61
2019-04-10T02:13:20.758Z,7.58
2019-04-10T02:14:20.746Z,7.55
2019-04-10T02:15:21.692Z,7.49
2019-04-10T02:16:20.898Z,7.52
2019-04-10T02:17:20.717Z,7.44
2019-04-10T02:18:21.415Z,7.44
2019-04-10T02:19:21.661Z,7.39
2019-04-10T02:20:21.035Z,7.43
2019-04-10T02:21:20.673Z,7.31
2019-04-10T02:22:20.661Z,7.50
2019-04-10T02:23:20.761Z,7.49
2019-04-10T02:24:20.640Z,7.55
2019-04-10T02:25:20.639Z,7.58
2019-04-10T02:26:21.296Z,7.50
2019-04-10T02:27:20.606Z,7.52
2019-04-10T02:28:20.754Z,7.52
2019-04-10T02:29:21.561Z,7.60
2019-04-10T02:30:21.912Z,7.54
2019-04-10T02:31:21.619Z,7.64
2019-04-10T02:32:21.062Z,7.61
2019-04-10T02:33:20.541Z,7.62
2019-04-10T02:34:21.279Z,7.60
2019-04-10T02:35:23.709Z,7.61
2019-04-10T02:36:21.279Z,7.61
2019-04-10T02:37:20.501Z,7.73
2019-04-10T02:38:35.995Z,7.69
2019-04-10T02:39:31.254Z,7.66
2019-04-10T02:40:21.509Z,7.68
2019-04-10T02:41:21.572Z,7.74
2019-04-10T02:42:20.916Z,7.68
2019-04-10T02:43:21.052Z,7.68
2019-04-10T02:44:20.649Z,7.66
2019-04-10T02:45:21.773Z,7.61
2019-04-10T02:46:21.710Z,7.58
2019-04-10T02:47:21.134Z,7.62
2019-04-10T02:48:20.375Z,7.62
2019-04-10T02:49:20.429Z,7.60
2019-04-10T02:50:20.777Z,7.52
2019-04-10T02:51:22.914Z,7.58
2019-04-10T02:52:20.395Z,7.61
2019-04-10T02:53:21.591Z,7.58
2019-04-10T02:54:21.331Z,7.46
2019-04-10T02:55:20.383Z,7.42
2019-04-10T02:56:21.488Z,7.26
2019-04-10T02:57:21.432Z,7.11
2019-04-10T02:58:20.531Z,7.13
2019-04-10T02:59:21.113Z,7.49
2019-04-10T03:00:22.041Z,7.83
2019-04-10T03:01:20.236Z,8.05
2019-04-10T03:02:20.322Z,8.09
2019-04-10T03:03:20.244Z,8.10
2019-04-10T03:04:20.707Z,8.23
2019-04-10T03:05:22.916Z,8.21
2019-04-10T03:06:20.647Z,8.35
2019-04-10T03:07:21.904Z,8.16
2019-04-10T03:08:37.115Z,8.23
2019-04-10T03:09:37.202Z,8.23
2019-04-10T03:10:31.603Z,8.29
2019-04-10T03:11:22.268Z,8.17
2019-04-10T03:12:21.732Z,8.12
2019-04-10T03:13:21.740Z,8.04
2019-04-10T03:14:21.212Z,7.86
2019-04-10T03:15:20.107Z,7.71
2019-04-10T03:16:20.072Z,7.71
2019-04-10T03:17:20.063Z,7.61
2019-04-10T03:18:20.980Z,7.60
2019-04-10T03:19:20.042Z,7.60
2019-04-10T03:20:20.449Z,7.58
2019-04-10T03:21:20.782Z,7.66
2019-04-10T03:22:20.831Z,7.64
2019-04-10T03:23:20.870Z,7.60
2019-04-10T03:24:21.198Z,7.52
2019-04-10T03:25:21.144Z,7.47
2019-04-10T03:26:19.960Z,7.34
2019-04-10T03:27:20.543Z,7.26
2019-04-10T03:28:19.937Z,7.25
2019-04-10T03:29:19.957Z,7.19
2019-04-10T03:30:21.034Z,7.25
2019-04-10T03:31:20.741Z,7.31
2019-04-10T03:32:21.105Z,7.25
2019-04-10T03:33:24.593Z,7.24
2019-04-10T03:34:22.687Z,7.18
2019-04-10T03:35:20.697Z,7.21
2019-04-10T03:36:19.854Z,7.13
2019-04-10T03:37:20.280Z,7.29
2019-04-10T03:38:19.834Z,7.43
2019-04-10T03:39:19.829Z,7.50
2019-04-10T03:40:19.813Z,7.42
2019-04-10T03:41:19.882Z,7.39
2019-04-10T03:42:19.784Z,7.42
2019-04-10T03:43:19.771Z,7.40
2019-04-10T03:44:20.745Z,7.34
2019-04-10T03:45:20.224Z,7.37
2019-04-10T03:46:19.740Z,7.36
2019-04-10T03:47:19.728Z,7.34
2019-04-10T03:48:20.165Z,7.39
2019-04-10T03:49:19.987Z,7.29
2019-04-10T03:50:19.700Z,7.25
2019-04-10T03:51:20.613Z,7.31
2019-04-10T03:52:19.686Z,7.34
2019-04-10T03:53:20.286Z,7.18
2019-04-10T03:54:20.721Z,7.10
2019-04-10T03:55:20.721Z,7.07
2019-04-10T03:56:19.629Z,7.11
2019-04-10T03:57:20.577Z,7.04
2019-04-10T03:58:19.755Z,7.04
2019-04-10T03:59:20.173Z,7.08
2019-04-10T04:00:20.956Z,7.18
2019-04-10T04:01:19.700Z,7.19
2019-04-10T04:02:19.841Z,7.18
2019-04-10T04:03:20.396Z,7.28
2019-04-10T04:04:19.656Z,7.25
2019-04-10T04:05:20.353Z,7.28
2019-04-10T04:06:19.604Z,7.42
2019-04-10T04:07:19.519Z,7.43
2019-04-10T04:08:19.499Z,7.52
2019-04-10T04:09:19.663Z,7.49
2019-04-10T04:10:20.485Z,7.50
2019-04-10T04:11:19.728Z,7.49
2019-04-10T04:12:20.235Z,7.43
2019-04-10T04:13:19.588Z,7.46
2019-04-10T04:14:19.954Z,7.39
2019-04-10T04:15:19.898Z,7.29
2019-04-10T04:16:19.416Z,7.34
2019-04-10T04:17:20.061Z,7.36
2019-04-10T04:18:19.388Z,7.40
2019-04-10T04:19:19.380Z,7.40
2019-04-10T04:20:19.370Z,7.61
2019-04-10T04:21:19.596Z,7.73
2019-04-10T04:22:19.354Z,7.73
2019-04-10T04:23:19.502Z,7.61
2019-04-10T04:24:21.291Z,7.61
2019-04-10T04:25:19.317Z,7.66
2019-04-10T04:26:19.301Z,7.71
2019-04-10T04:27:19.991Z,7.69
2019-04-10T04:28:19.281Z,7.61
2019-04-10T04:29:19.272Z,7.49
2019-04-10T04:30:20.374Z,7.43
2019-04-10T04:31:19.250Z,7.33
2019-04-10T04:32:19.676Z,7.25
2019-04-10T04:33:19.238Z,7.15
2019-04-10T04:34:19.213Z,7.19
2019-04-10T04:35:19.934Z,7.16
2019-04-10T04:36:20.297Z,7.36
2019-04-10T04:37:19.190Z,7.36
2019-04-10T04:38:19.990Z,7.40
2019-04-10T04:39:24.946Z,7.43
2019-04-10T04:40:20.147Z,7.47
2019-04-10T04:41:19.594Z,7.54
2019-04-10T04:42:19.133Z,7.54
2019-04-10T04:43:19.119Z,7.46
2019-04-10T04:44:20.157Z,7.31
2019-04-10T04:45:19.487Z,7.26
2019-04-10T04:46:19.088Z,7.28
2019-04-10T04:47:19.139Z,7.36
2019-04-10T04:48:19.517Z,7.50
2019-04-10T04:49:19.054Z,7.61
2019-04-10T04:50:19.958Z,7.60
2019-04-10T04:51:19.672Z,7.62
2019-04-10T04:52:19.021Z,7.69
2019-04-10T04:53:19.011Z,7.66
2019-04-10T04:54:19.238Z,7.68
2019-04-10T04:55:19.783Z,7.71
2019-04-10T04:56:19.935Z,7.66
2019-04-10T04:57:18.967Z,7.66
2019-04-10T04:58:20.190Z,7.64
2019-04-10T04:59:18.943Z,7.61
2019-04-10T05:00:18.934Z,7.62
2019-04-10T05:01:19.029Z,7.64
2019-04-10T05:02:19.926Z,7.60
2019-04-10T05:03:18.906Z,7.46
2019-04-10T05:04:19.383Z,7.42
2019-04-10T05:05:18.876Z,7.46
2019-04-10T05:06:18.867Z,7.52
2019-04-10T05:07:18.855Z,7.46
2019-04-10T05:08:18.857Z,7.50
2019-04-10T05:09:30.057Z,7.52
2019-04-10T05:10:20.876Z,7.58
2019-04-10T05:11:18.811Z,7.73
2019-04-10T05:12:20.056Z,7.69
2019-04-10T05:13:19.012Z,7.92
2019-04-10T05:14:19.585Z,8.06
2019-04-10T05:15:18.767Z,8.21
2019-04-10T05:16:18.777Z,8.29
2019-04-10T05:17:19.927Z,8.49
2019-04-10T05:18:19.074Z,8.71
2019-04-10T05:19:18.985Z,8.95
2019-04-10T05:20:19.007Z,8.99
2019-04-10T05:21:19.158Z,9.03
2019-04-10T05:22:18.813Z,9.18
2019-04-10T05:23:18.686Z,9.16
2019-04-10T05:24:18.667Z,9.29
2019-04-10T05:25:19.031Z,9.47
2019-04-10T05:26:18.734Z,9.52
2019-04-10T05:27:18.642Z,9.66
2019-04-10T05:28:19.024Z,9.77
2019-04-10T05:29:19.653Z,9.93
2019-04-10T05:30:18.608Z,9.98
2019-04-10T05:31:19.310Z,10.12
2019-04-10T05:32:18.601Z,10.21
2019-04-10T05:33:18.570Z,10.34
2019-04-10T05:34:18.568Z,10.14
2019-04-10T05:35:19.284Z,10.14
2019-04-10T05:36:19.451Z,10.35
2019-04-10T05:37:19.145Z,11.16
2019-04-10T05:38:18.786Z,11.45
2019-04-10T05:39:19.046Z,11.85
2019-04-10T05:40:19.409Z,11.77
2019-04-10T05:41:19.585Z,11.55
2019-04-10T05:42:18.489Z,11.93
2019-04-10T05:43:18.461Z,12.08
2019-04-10T05:44:18.446Z,12.43
2019-04-10T05:45:18.437Z,12.41
2019-04-10T05:46:18.625Z,12.59
2019-04-10T05:47:19.254Z,12.38
2019-04-10T05:48:21.024Z,12.43
2019-04-10T05:49:18.393Z,12.21
2019-04-10T05:50:19.359Z,11.71
2019-04-10T05:51:19.179Z,11.84
2019-04-10T05:52:18.365Z,11.71
2019-04-10T05:53:18.496Z,12.14
2019-04-10T05:54:19.216Z,12.08
2019-04-10T05:55:18.368Z,12.22
2019-04-10T05:56:19.183Z,11.91
2019-04-10T05:57:18.307Z,11.71
2019-04-10T05:58:18.296Z,11.79
2019-04-10T05:59:18.315Z,12.29
2019-04-10T06:00:18.838Z,12.81
2019-04-10T06:01:29.969Z,13.35
2019-04-10T06:02:19.255Z,13.63
2019-04-10T06:03:18.625Z,13.79
2019-04-10T06:04:18.960Z,13.82
2019-04-10T06:05:18.217Z,13.75
2019-04-10T06:06:18.205Z,14.09
2019-04-10T06:07:19.181Z,14.16
2019-04-10T06:08:18.203Z,14.19
2019-04-10T06:09:18.171Z,13.93
2019-04-10T06:10:18.161Z,13.71
2019-04-10T06:11:18.144Z,13.80
2019-04-10T06:12:18.220Z,14.22
2019-04-10T06:13:19.244Z,14.27
2019-04-10T06:14:18.114Z,14.46
2019-04-10T06:15:19.097Z,14.38
2019-04-10T06:16:18.098Z,14.92
2019-04-10T06:17:18.411Z,15.48
2019-04-10T06:18:18.728Z,15.41
2019-04-10T06:19:18.065Z,15.87
2019-04-10T06:20:18.073Z,15.93
2019-04-10T06:21:18.835Z,15.63
2019-04-10T06:22:18.709Z,14.87
2019-04-10T06:23:19.064Z,15.04
2019-04-10T06:24:18.324Z,15.47
2019-04-10T06:25:19.554Z,15.62
2019-04-10T06:26:17.993Z,15.05
2019-04-10T06:27:18.518Z,14.79
2019-04-10T06:28:17.992Z,14.37
2019-04-10T06:29:19.102Z,14.22
2019-04-10T06:30:17.940Z,14.18
2019-04-10T06:31:18.676Z,14.05
2019-04-10T06:32:19.072Z,13.42
2019-04-10T06:33:18.024Z,13.39
2019-04-10T06:34:18.817Z,13.72
2019-04-10T06:35:17.882Z,13.97
2019-04-10T06:36:17.875Z,14.09
2019-04-10T06:37:17.865Z,14.51
2019-04-10T06:38:18.906Z,15.05
2019-04-10T06:39:18.426Z,15.72
2019-04-10T06:40:21.050Z,16.59
2019-04-10T06:41:19.117Z,17.52
2019-04-10T06:42:17.807Z,17.71
2019-04-10T06:43:18.832Z,17.09
2019-04-10T06:44:17.780Z,16.88
2019-04-10T06:45:17.893Z,17.19
2019-04-10T06:46:17.758Z,17.46
2019-04-10T06:47:18.137Z,17.20
2019-04-10T06:48:17.736Z,17.90
2019-04-10T06:49:17.730Z,17.86
2019-04-10T06:50:18.897Z,17.66
2019-04-10T06:51:19.875Z,17.63
2019-04-10T06:52:18.570Z,18.39
2019-04-10T06:53:18.718Z,18.46
2019-04-10T06:54:17.671Z,18.89
2019-04-10T06:55:18.590Z,18.70
2019-04-10T06:56:18.712Z,19.54
2019-04-10T06:57:18.685Z,20.14
2019-04-10T06:58:17.926Z,20.75
2019-04-10T06:59:17.665Z,21.14
2019-04-10T07:00:19.252Z,21.00
2019-04-10T07:01:20.931Z,21.08
2019-04-10T07:02:25.537Z,21.32
2019-04-10T07:03:18.950Z,21.58
2019-04-10T07:04:18.145Z,21.94
2019-04-10T07:05:17.547Z,22.03
2019-04-10T07:06:21.660Z,21.66
2019-04-10T07:07:21.755Z,21.13
2019-04-10T07:08:21.432Z,19.75
2019-04-10T07:09:18.184Z,19.08
2019-04-10T07:10:25.877Z,18.79
2019-04-10T07:11:20.493Z,18.24
2019-04-10T07:12:18.528Z,18.78
2019-04-10T07:13:17.645Z,18.81
2019-04-10T07:14:18.347Z,18.71
2019-04-10T07:15:21.167Z,19.04
2019-04-10T07:16:18.425Z,19.09
2019-04-10T07:17:17.988Z,18.91
2019-04-10T07:18:20.307Z,18.27
2019-04-10T07:19:17.736Z,18.98
2019-04-10T07:20:19.158Z,19.92
2019-04-10T07:21:17.382Z,19.74
2019-04-10T07:22:17.771Z,20.02
2019-04-10T07:23:23.340Z,20.61
2019-04-10T07:24:18.835Z,21.08
2019-04-10T07:25:17.508Z,21.05
2019-04-10T07:26:21.752Z,20.58
2019-04-10T07:27:19.431Z,20.44
2019-04-10T07:28:17.456Z,20.73
2019-04-10T07:29:21.136Z,21.55
2019-04-10T07:30:19.400Z,21.41
2019-04-10T07:31:17.376Z,20.19
2019-04-10T07:32:18.289Z,20.93
2019-04-10T07:33:19.416Z,21.62
2019-04-10T07:34:20.032Z,22.04
2019-04-10T07:35:19.887Z,22.04
2019-04-10T07:36:18.018Z,22.19
2019-04-10T07:37:18.456Z,21.53
2019-04-10T07:38:18.363Z,21.56
2019-04-10T07:39:17.364Z,21.60
2019-04-10T07:40:17.167Z,21.71
2019-04-10T07:41:21.338Z,20.67
2019-04-10T07:42:26.848Z,20.05
2019-04-10T07:43:22.226Z,20.50
2019-04-10T07:44:18.114Z,21.48
2019-04-10T07:45:17.110Z,22.30
2019-04-10T07:46:17.358Z,22.53
2019-04-10T07:47:17.433Z,22.98
2019-04-10T07:48:17.078Z,23.31
2019-04-10T07:49:19.325Z,22.83
2019-04-10T07:50:17.054Z,23.44
2019-04-10T07:51:17.057Z,23.63
2019-04-10T07:52:19.712Z,22.18
2019-04-10T07:53:17.020Z,20.95
2019-04-10T07:54:20.832Z,20.83
2019-04-10T07:55:17.042Z,21.37
2019-04-10T07:56:20.372Z,20.95
2019-04-10T07:57:17.127Z,20.67
2019-04-10T07:58:17.340Z,21.40
2019-04-10T07:59:16.952Z,22.44
2019-04-10T08:00:18.063Z,23.06
2019-04-10T08:01:16.935Z,23.31
2019-04-10T08:02:16.935Z,23.45
2019-04-10T08:03:16.933Z,23.36
2019-04-10T08:04:17.971Z,23.28
2019-04-10T08:05:16.901Z,23.61
2019-04-10T08:06:17.917Z,22.74
2019-04-10T08:07:26.673Z,22.95
2019-04-10T08:08:17.867Z,23.22
2019-04-10T08:09:16.846Z,22.04
2019-04-10T08:10:17.902Z,22.06
2019-04-10T08:11:17.570Z,22.70
2019-04-10T08:12:16.816Z,22.66
2019-04-10T08:13:16.805Z,22.92
2019-04-10T08:14:16.908Z,23.44
2019-04-10T08:15:16.881Z,23.56
2019-04-10T08:16:17.049Z,24.21
2019-04-10T08:17:16.764Z,23.98
2019-04-10T08:18:16.839Z,23.36
2019-04-10T08:19:16.747Z,22.89
2019-04-10T08:20:17.710Z,23.11
2019-04-10T08:21:17.747Z,22.48
2019-04-10T08:22:17.881Z,20.12
2019-04-10T08:23:17.526Z,19.94
2019-04-10T08:24:16.687Z,20.64
2019-04-10T08:25:16.676Z,21.05
2019-04-10T08:26:16.679Z,20.67
2019-04-10T08:27:17.186Z,20.95
2019-04-10T08:28:17.722Z,20.93
2019-04-10T08:29:16.638Z,21.59
2019-04-10T08:30:17.431Z,21.45
2019-04-10T08:31:17.036Z,21.00
2019-04-10T08:32:16.603Z,19.84
2019-04-10T08:33:17.485Z,19.82
2019-04-10T08:34:17.262Z,20.61
2019-04-10T08:35:17.455Z,21.41
2019-04-10T08:36:16.577Z,22.04
2019-04-10T08:37:17.374Z,21.88
2019-04-10T08:38:17.273Z,21.16
2019-04-10T08:39:28.608Z,21.90
2019-04-10T08:40:17.521Z,22.46
2019-04-10T08:41:17.144Z,22.43
2019-04-10T08:42:16.830Z,23.23
2019-04-10T08:43:16.486Z,23.94
2019-04-10T08:44:17.682Z,23.51
2019-04-10T08:45:16.834Z,24.11
2019-04-10T08:46:17.659Z,24.08
2019-04-10T08:47:17.265Z,23.37
2019-04-10T08:48:17.640Z,22.49
2019-04-10T08:49:16.429Z,22.09
2019-04-10T08:50:17.360Z,22.30
2019-04-10T08:51:17.070Z,22.93
2019-04-10T08:52:16.661Z,23.49
2019-04-10T08:53:16.385Z,23.10
2019-04-10T08:54:16.373Z,23.41
2019-04-10T08:55:17.621Z,24.44
2019-04-10T08:56:16.355Z,25.19
2019-04-10T08:57:17.159Z,25.26
2019-04-10T08:58:16.672Z,23.42
2019-04-10T08:59:16.318Z,23.60
2019-04-10T09:00:16.522Z,24.00
2019-04-10T09:01:17.342Z,23.42
2019-04-10T09:02:16.291Z,23.81
2019-04-10T09:03:17.018Z,23.60
2019-04-10T09:04:16.276Z,23.52
2019-04-10T09:05:17.433Z,23.21
2019-04-10T09:06:17.428Z,22.12
2019-04-10T09:07:16.244Z,22.59
2019-04-10T09:08:17.043Z,22.22
2019-04-10T09:09:17.238Z,21.88
2019-04-10T09:10:16.469Z,22.83
2019-04-10T09:11:25.493Z,23.26
2019-04-10T09:12:17.799Z,23.86
2019-04-10T09:13:16.761Z,24.03
2019-04-10T09:14:17.030Z,24.43
2019-04-10T09:15:16.157Z,25.04
2019-04-10T09:16:16.242Z,24.84
2019-04-10T09:17:17.303Z,24.03
2019-04-10T09:18:16.858Z,22.78
2019-04-10T09:19:16.195Z,22.51
2019-04-10T09:20:16.395Z,23.39
2019-04-10T09:21:16.098Z,24.15
2019-04-10T09:22:16.256Z,24.45
2019-04-10T09:23:26.285Z,24.59
2019-04-10T09:24:17.494Z,25.08
2019-04-10T09:25:16.564Z,25.16
2019-04-10T09:26:16.096Z,25.38
2019-04-10T09:27:17.109Z,25.43
2019-04-10T09:28:16.183Z,25.26
2019-04-10T09:29:16.140Z,25.67
2019-04-10T09:30:16.411Z,26.39
2019-04-10T09:31:16.004Z,26.12
2019-04-10T09:32:15.984Z,26.12
2019-04-10T09:33:23.015Z,26.64
2019-04-10T09:34:17.930Z,27.23
2019-04-10T09:35:16.359Z,27.53
2019-04-10T09:36:15.944Z,26.86
2019-04-10T09:37:15.938Z,26.98
2019-04-10T09:38:16.758Z,27.10
2019-04-10T09:39:17.096Z,26.31
2019-04-10T09:40:16.256Z,25.55
2019-04-10T09:41:15.901Z,25.93
2019-04-10T09:42:17.087Z,24.86
2019-04-10T09:43:15.873Z,23.15
2019-04-10T09:44:15.862Z,23.84
2019-04-10T09:45:15.862Z,24.16
2019-04-10T09:46:16.205Z,24.43
2019-04-10T09:47:16.435Z,25.11
2019-04-10T09:48:16.555Z,25.15
2019-04-10T09:49:16.598Z,25.30
2019-04-10T09:50:15.812Z,25.93
2019-04-10T09:51:18.021Z,26.41
2019-04-10T09:52:15.793Z,27.10
2019-04-10T09:53:16.942Z,27.52
2019-04-10T09:54:15.771Z,27.75
2019-04-10T09:55:15.947Z,27.03
2019-04-10T09:56:15.747Z,26.03
2019-04-10T09:57:15.736Z,24.71
2019-04-10T09:58:15.734Z,25.19
2019-04-10T09:59:16.045Z,25.89
2019-04-10T10:00:15.709Z,26.68
2019-04-10T10:01:15.732Z,26.41
2019-04-10T10:02:16.199Z,26.82
2019-04-10T10:03:15.686Z,26.57
2019-04-10T10:04:15.685Z,27.07
2019-04-10T10:05:15.721Z,27.12
2019-04-10T10:06:24.349Z,27.08
2019-04-10T10:07:16.642Z,27.03
2019-04-10T10:08:16.224Z,26.00
2019-04-10T10:09:15.629Z,26.61
2019-04-10T10:10:15.619Z,26.93
2019-04-10T10:11:15.610Z,26.86
2019-04-10T10:12:15.849Z,27.57
2019-04-10T10:13:15.589Z,27.64
2019-04-10T10:14:16.606Z,27.32
2019-04-10T10:15:16.759Z,26.60
2019-04-10T10:16:15.565Z,24.60
2019-04-10T10:17:16.787Z,23.39
2019-04-10T10:18:15.554Z,23.70
2019-04-10T10:19:16.110Z,24.43
2019-04-10T10:20:15.522Z,24.85
2019-04-10T10:21:16.574Z,24.41
2019-04-10T10:22:15.506Z,24.74
2019-04-10T10:23:15.818Z,23.60
2019-04-10T10:24:16.274Z,22.73
2019-04-10T10:25:15.474Z,22.80
2019-04-10T10:26:15.500Z,22.91
2019-04-10T10:27:15.688Z,21.94
2019-04-10T10:28:15.450Z,22.00
2019-04-10T10:29:15.525Z,22.58
2019-04-10T10:30:15.594Z,23.01
2019-04-10T10:31:15.811Z,22.71
2019-04-10T10:32:15.431Z,22.07
2019-04-10T10:33:15.401Z,22.11
2019-04-10T10:34:16.357Z,22.52
2019-04-10T10:35:15.382Z,22.73
2019-04-10T10:36:15.859Z,23.45
2019-04-10T10:37:16.566Z,23.66
2019-04-10T10:38:15.346Z,24.34
2019-04-10T10:39:16.194Z,24.36
2019-04-10T10:40:15.326Z,24.04
2019-04-10T10:41:15.314Z,23.85
2019-04-10T10:42:15.775Z,23.85
2019-04-10T10:43:16.200Z,23.88
2019-04-10T10:44:15.281Z,23.67
2019-04-10T10:45:15.490Z,24.04
2019-04-10T10:46:15.518Z,23.88
2019-04-10T10:47:15.911Z,24.21
2019-04-10T10:48:15.632Z,24.41
2019-04-10T10:49:15.928Z,23.49
2019-04-10T10:50:15.228Z,23.37
2019-04-10T10:51:15.212Z,24.04
2019-04-10T10:52:15.393Z,24.43
2019-04-10T10:53:16.351Z,23.94
2019-04-10T10:54:15.182Z,23.85
2019-04-10T10:55:15.647Z,23.55
2019-04-10T10:56:15.175Z,23.17
2019-04-10T10:57:15.253Z,24.04
2019-04-10T10:58:15.452Z,24.25
2019-04-10T10:59:15.521Z,24.63
2019-04-10T11:00:15.124Z,24.84
2019-04-10T11:01:15.793Z,25.11
2019-04-10T11:02:15.124Z,24.93
2019-04-10T11:03:16.103Z,25.01
2019-04-10T11:04:15.093Z,25.33
2019-04-10T11:05:15.100Z,25.00
2019-04-10T11:06:16.161Z,25.36
2019-04-10T11:07:16.107Z,24.38
2019-04-10T11:08:15.359Z,24.06
2019-04-10T11:09:15.684Z,24.37
2019-04-10T11:10:15.030Z,24.41
2019-04-10T11:11:15.021Z,23.04
2019-04-10T11:12:15.023Z,23.11
2019-04-10T11:13:15.086Z,23.29
2019-04-10T11:14:15.087Z,23.84
2019-04-10T11:15:16.163Z,24.53
2019-04-10T11:16:14.974Z,25.37
2019-04-10T11:17:15.807Z,25.63
2019-04-10T11:18:15.842Z,25.88
2019-04-10T11:19:15.337Z,25.63
2019-04-10T11:20:15.267Z,25.21
2019-04-10T11:21:14.925Z,25.75
2019-04-10T11:22:21.826Z,26.27
2019-04-10T11:23:15.903Z,26.00
2019-04-10T11:24:15.040Z,26.56
2019-04-10T11:25:15.711Z,26.52
2019-04-10T11:26:19.996Z,26.95
2019-04-10T11:27:16.061Z,27.17
2019-04-10T11:28:16.148Z,25.74
2019-04-10T11:29:14.850Z,24.00
2019-04-10T11:30:15.986Z,24.48
2019-04-10T11:31:15.920Z,25.33
2019-04-10T11:32:14.828Z,25.86
2019-04-10T11:33:14.969Z,26.83
2019-04-10T11:34:16.470Z,27.22
2019-04-10T11:35:15.550Z,28.16
2019-04-10T11:36:15.118Z,27.95
2019-04-10T11:37:24.201Z,27.61
2019-04-10T11:38:17.481Z,28.24
2019-04-10T11:39:22.571Z,28.46
2019-04-10T11:40:17.976Z,28.68
2019-04-10T11:41:15.018Z,28.24
2019-04-10T11:42:14.745Z,26.68
2019-04-10T11:43:14.722Z,26.11
2019-04-10T11:44:17.156Z,25.41
2019-04-10T11:45:16.996Z,25.00
2019-04-10T11:46:14.714Z,25.27
2019-04-10T11:47:14.926Z,25.18
2019-04-10T11:48:16.349Z,24.71
2019-04-10T11:49:15.955Z,25.04
2019-04-10T11:50:17.763Z,25.45
2019-04-10T11:51:16.475Z,26.04
2019-04-10T11:52:17.225Z,26.45
2019-04-10T11:53:18.706Z,26.28
2019-04-10T11:54:15.399Z,26.07
2019-04-10T11:55:19.387Z,25.00
2019-04-10T11:56:18.913Z,23.39
2019-04-10T11:57:17.702Z,22.62
2019-04-10T11:58:17.598Z,22.12
2019-04-10T11:59:14.602Z,22.88
2019-04-10T12:00:19.131Z,23.37
2019-04-10T12:01:17.554Z,24.60
2019-04-10T12:02:17.104Z,25.48
2019-04-10T12:03:18.114Z,25.55
2019-04-10T12:04:16.587Z,24.97
2019-04-10T12:05:19.087Z,25.56
2019-04-10T12:06:17.432Z,26.57
2019-04-10T12:07:49.146Z,26.64
2019-04-10T12:11:18.818Z,25.03
2019-04-10T12:12:15.448Z,25.19
2019-04-10T12:13:17.003Z,25.19
2019-04-10T12:14:15.429Z,26.12
2019-04-10T12:15:14.412Z,27.05
2019-04-10T12:16:14.803Z,27.66
2019-04-10T12:17:14.399Z,27.97
2019-04-10T12:18:14.387Z,27.69
2019-04-10T12:19:15.232Z,26.42
2019-04-10T12:20:14.367Z,26.34
2019-04-10T12:21:14.350Z,26.42
2019-04-10T12:22:14.345Z,26.46
2019-04-10T12:23:14.333Z,25.52
2019-04-10T12:24:14.327Z,24.68
2019-04-10T12:25:14.495Z,24.74
2019-04-10T12:26:14.317Z,25.19
2019-04-10T12:27:14.696Z,24.00
2019-04-10T12:28:14.293Z,23.29
2019-04-10T12:29:14.276Z,23.42
2019-04-10T12:30:15.309Z,23.41
2019-04-10T12:31:15.515Z,23.39
2019-04-10T12:32:14.602Z,23.59
2019-04-10T12:33:14.243Z,23.79
2019-04-10T12:34:14.964Z,24.47
2019-04-10T12:35:15.158Z,24.99
2019-04-10T12:36:14.223Z,25.53
2019-04-10T12:37:15.133Z,25.78
2019-04-10T12:38:15.095Z,26.03
2019-04-10T12:39:14.194Z,26.26
2019-04-10T12:40:14.171Z,26.03
2019-04-10T12:41:15.127Z,24.93
2019-04-10T12:42:14.248Z,24.44
2019-04-10T12:43:14.142Z,23.78
2019-04-10T12:44:14.141Z,23.52
2019-04-10T12:45:14.137Z,23.39
2019-04-10T12:46:14.943Z,22.70
2019-04-10T12:47:14.107Z,22.58
2019-04-10T12:48:14.529Z,22.58
2019-04-10T12:49:15.084Z,22.30
2019-04-10T12:50:14.278Z,21.97
2019-04-10T12:51:14.063Z,21.71
2019-04-10T12:52:14.351Z,21.62
2019-04-10T12:53:14.042Z,22.12
2019-04-10T12:54:14.251Z,22.76
2019-04-10T12:55:14.506Z,23.37
2019-04-10T12:56:14.018Z,23.42
2019-04-10T12:57:14.823Z,23.96
2019-04-10T12:58:17.562Z,24.62
2019-04-10T12:59:15.222Z,25.58
2019-04-10T13:00:13.974Z,26.19
2019-04-10T13:01:14.258Z,24.86
2019-04-10T13:02:14.738Z,25.78
2019-04-10T13:03:14.646Z,25.77
2019-04-10T13:04:13.935Z,24.97
2019-04-10T13:05:13.924Z,25.03
2019-04-10T13:06:13.913Z,26.27